createdAt,value
2019-04-20T00:01:26.228Z,9.40
2019-04-20T00:03:53.698Z,9.40
2019-04-20T00:06:25.002Z,9.30
2019-04-20T00:09:00.775Z,9.20
2019-04-20T00:11:39.775Z,9.10
2019-04-20T00:14:06.659Z,9.10
2019-04-20T00:16:32.075Z,9.00
2019-04-20T00:19:05.000Z,9.00
2019-04-20T00:21:47.261Z,9.00
2019-04-20T00:24:21.663Z,8.90
2019-04-20T00:29:39.380Z,8.80
2019-04-20T00:32:05.371Z,8.80
2019-04-20T00:34:31.552Z,8.80
2019-04-20T00:36:58.147Z,8.70
2019-04-20T00:39:29.960Z,8.70
2019-04-20T00:42:06.145Z,8.60
2019-04-20T00:44:35.789Z,8.60
2019-04-20T00:47:18.091Z,8.60
2019-04-20T00:49:50.644Z,8.50
2019-04-20T00:52:29.090Z,8.50
2019-04-20T00:54:41.573Z,8.40
2019-04-20T00:57:23.493Z,8.40
2019-04-20T01:00:04.629Z,8.30
2019-04-20T01:02:29.911Z,8.20
2019-04-20T01:05:04.523Z,8.20
2019-04-20T01:07:37.457Z,8.20
2019-04-20T01:10:08.964Z,8.20
2019-04-20T01:12:41.008Z,8.20
2019-04-20T01:15:22.854Z,8.10
2019-04-20T01:17:44.789Z,8.00
2019-04-20T01:20:15.584Z,7.90
2019-04-20T01:22:54.606Z,7.90
2019-04-20T01:25:27.225Z,7.90
2019-04-20T01:28:10.257Z,7.90
2019-04-20T01:30:32.334Z,7.80
2019-04-20T01:33:12.733Z,7.70
2019-04-20T01:35:44.672Z,7.70
2019-04-20T01:38:16.745Z,7.60
2019-04-20T01:40:33.724Z,7.60
2019-04-20T01:43:05.577Z,7.60
2019-04-20T01:45:40.453Z,7.50
2019-04-20T01:48:09.863Z,7.50
2019-04-20T01:50:49.924Z,7.50
2019-04-20T01:53:24.983Z,7.40
2019-04-20T01:56:05.413Z,7.40
2019-04-20T01:58:42.165Z,7.40
2019-04-20T02:00:57.292Z,7.30
2019-04-20T02:03:40.301Z,7.20
2019-04-20T02:06:17.802Z,7.20
2019-04-20T02:08:44.197Z,7.20
2019-04-20T02:11:23.144Z,7.10
2019-04-20T02:13:51.610Z,7.10
2019-04-20T02:16:28.911Z,7.00
2019-04-20T02:19:09.045Z,7.00
2019-04-20T02:21:37.900Z,7.00
2019-04-20T02:24:00.813Z,6.90
2019-04-20T02:26:28.249Z,6.90
2019-04-20T02:29:23.642Z,6.90
2019-04-20T02:34:39.682Z,6.80
2019-04-20T02:37:33.468Z,6.80
2019-04-20T02:42:24.810Z,6.70
2019-04-20T02:45:06.655Z,6.60
2019-04-20T02:47:33.836Z,6.60
2019-04-20T02:50:14.955Z,6.60
2019-04-20T02:52:50.982Z,6.50
2019-04-20T02:55:12.896Z,6.50
2019-04-20T02:57:40.365Z,6.50
2019-04-20T03:00:10.402Z,6.40
2019-04-20T03:02:23.366Z,6.40
2019-04-20T03:04:45.906Z,6.40
2019-04-20T03:07:23.204Z,6.30
2019-04-20T03:10:00.802Z,6.30
2019-04-20T03:12:38.371Z,6.30
2019-04-20T03:15:00.691Z,6.20
2019-04-20T03:17:39.085Z,6.20
2019-04-20T03:20:03.077Z,6.20
2019-04-20T03:23:05.738Z,6.20
2019-04-20T03:25:18.302Z,6.10
2019-04-20T03:27:59.566Z,6.10
2019-04-20T03:31:16.346Z,6.10
2019-04-20T03:33:23.048Z,6.10
2019-04-20T03:35:43.424Z,6.00
2019-04-20T03:38:10.686Z,6.00
2019-04-20T03:40:38.965Z,5.90
2019-04-20T03:42:56.945Z,5.90
2019-04-20T03:45:35.032Z,5.80
2019-04-20T03:48:09.056Z,5.80
2019-04-20T03:50:50.855Z,5.80
2019-04-20T03:53:39.801Z,5.80
2019-04-20T03:56:01.300Z,5.80
2019-04-20T03:58:37.615Z,5.70
2019-04-20T04:01:35.897Z,5.70
2019-04-20T04:04:12.170Z,5.70
2019-04-20T04:06:32.830Z,5.60
2019-04-20T04:09:07.247Z,5.60
2019-04-20T04:11:38.090Z,5.60
2019-04-20T04:13:56.679Z,5.70
2019-04-20T04:16:36.437Z,5.60
2019-04-20T04:19:10.033Z,5.60
2019-04-20T04:21:49.695Z,5.50
2019-04-20T04:24:19.298Z,5.50
2019-04-20T04:26:51.216Z,5.50
2019-04-20T04:29:32.551Z,5.50
2019-04-20T04:32:05.368Z,5.60
2019-04-20T04:34:34.643Z,5.50
2019-04-20T04:37:07.372Z,5.60
2019-04-20T04:39:41.819Z,5.60
2019-04-20T04:42:16.702Z,5.60
2019-04-20T04:44:37.010Z,5.60
2019-04-20T04:46:58.488Z,5.60
2019-04-20T04:49:31.944Z,5.70
2019-04-20T04:52:05.640Z,5.70
2019-04-20T04:54:40.055Z,5.80
2019-04-20T04:57:03.344Z,5.80
2019-04-20T04:59:34.160Z,5.80
2019-04-20T05:02:05.340Z,5.90
2019-04-20T05:05:17.737Z,5.90
2019-04-20T05:07:38.779Z,6.00
2019-04-20T05:10:01.210Z,6.10
2019-04-20T05:12:34.993Z,6.10
2019-04-20T05:15:14.365Z,6.10
2019-04-20T05:17:57.833Z,6.20
2019-04-20T05:20:30.708Z,6.30
2019-04-20T05:23:07.634Z,6.30
2019-04-20T05:25:56.937Z,6.30
2019-04-20T05:28:20.458Z,6.30
2019-04-20T05:30:45.607Z,6.40
2019-04-20T05:33:25.436Z,6.40
2019-04-20T05:36:05.680Z,6.50
2019-04-20T05:38:43.151Z,6.50
2019-04-20T05:41:08.825Z,6.60
2019-04-20T05:43:43.845Z,6.70
2019-04-20T05:46:22.085Z,6.80
2019-04-20T05:48:53.294Z,6.90
2019-04-20T05:51:24.196Z,7.00
2019-04-20T05:53:50.037Z,7.10
2019-04-20T05:56:33.102Z,7.20
2019-04-20T05:58:58.078Z,7.20
2019-04-20T06:01:34.487Z,7.30
2019-04-20T06:03:58.091Z,7.40
2019-04-20T06:06:37.579Z,7.40
2019-04-20T06:09:12.358Z,7.50
2019-04-20T06:11:48.973Z,7.60
2019-04-20T06:14:07.123Z,7.70
2019-04-20T06:16:50.013Z,7.70
2019-04-20T06:19:31.893Z,7.80
2019-04-20T06:21:57.479Z,7.90
2019-04-20T06:24:39.935Z,7.90
2019-04-20T06:27:04.959Z,8.10
2019-04-20T06:29:34.903Z,8.10
2019-04-20T06:32:17.452Z,8.20
2019-04-20T06:34:40.037Z,8.30
2019-04-20T06:37:09.883Z,8.40
2019-04-20T06:39:48.767Z,8.50
2019-04-20T06:42:18.118Z,8.50
2019-04-20T06:45:04.542Z,8.60
2019-04-20T06:49:51.621Z,8.90
2019-04-20T06:52:32.370Z,9.00
2019-04-20T06:54:58.192Z,9.00
2019-04-20T06:57:37.264Z,9.10
2019-04-20T07:00:14.049Z,9.20
2019-04-20T07:02:41.390Z,9.30
2019-04-20T07:05:13.031Z,9.40
2019-04-20T07:07:47.529Z,9.50
2019-04-20T07:10:18.351Z,9.60
2019-04-20T07:12:45.042Z,9.60
2019-04-20T07:15:21.361Z,9.70
2019-04-20T07:17:57.550Z,9.80
2019-04-20T07:20:45.973Z,10.00
2019-04-20T07:23:25.404Z,10.20
2019-04-20T07:25:49.028Z,10.40
2019-04-20T07:28:24.693Z,10.50
2019-04-20T07:30:51.930Z,10.80
2019-04-20T07:33:21.747Z,10.90
2019-04-20T07:35:52.462Z,11.00
2019-04-20T07:40:55.816Z,11.20
2019-04-20T07:43:32.017Z,11.40
2019-04-20T07:46:01.836Z,11.50
2019-04-20T07:48:29.267Z,11.70
2019-04-20T07:51:00.395Z,11.80
2019-04-20T07:53:33.870Z,11.90
2019-04-20T07:56:12.887Z,12.10
2019-04-20T07:58:31.698Z,12.20
2019-04-20T08:01:38.751Z,12.40
2019-04-20T08:04:08.139Z,12.50
2019-04-20T08:06:40.020Z,12.60
2019-04-20T08:09:14.544Z,12.80
2019-04-20T08:11:57.426Z,12.90
2019-04-20T08:14:30.677Z,13.10
2019-04-20T08:19:28.690Z,13.30
2019-04-20T08:22:09.512Z,13.50
2019-04-20T08:24:34.588Z,13.70
2019-04-20T08:26:55.566Z,13.80
2019-04-20T08:29:42.394Z,14.00
2019-04-20T08:32:30.563Z,14.20
2019-04-20T08:35:10.449Z,14.40
2019-04-20T08:37:31.067Z,14.60
2019-04-20T08:40:10.198Z,14.80
2019-04-20T08:42:50.002Z,14.90
2019-04-20T08:45:18.835Z,15.00
2019-04-20T08:48:04.310Z,15.20
2019-04-20T08:50:19.844Z,15.40
2019-04-20T08:55:19.770Z,15.70
2019-04-20T08:57:35.547Z,15.80
2019-04-20T09:00:11.283Z,16.00
2019-04-20T09:02:51.953Z,16.10
2019-04-20T09:05:32.978Z,16.40
2019-04-20T09:07:56.649Z,16.50
2019-04-20T09:10:42.211Z,16.60
2019-04-20T09:13:05.761Z,16.80
2019-04-20T09:15:25.350Z,16.80
2019-04-20T09:18:03.840Z,17.00
2019-04-20T09:20:43.502Z,17.00
2019-04-20T09:23:23.890Z,17.20
2019-04-20T09:28:38.399Z,17.20
2019-04-20T09:31:19.888Z,17.20
2019-04-20T09:33:55.636Z,17.40
2019-04-20T09:36:45.835Z,17.50
2019-04-20T09:39:22.458Z,17.60
2019-04-20T09:42:00.039Z,17.80
2019-04-20T09:44:17.749Z,18.00
2019-04-20T09:46:51.775Z,18.10
2019-04-20T09:49:36.186Z,18.30
2019-04-20T09:52:06.795Z,18.50
2019-04-20T09:54:41.387Z,18.70
2019-04-20T09:57:22.906Z,19.00
2019-04-20T09:59:52.814Z,19.40
2019-04-20T10:02:07.722Z,19.80
2019-04-20T10:04:33.886Z,20.10
2019-04-20T10:07:10.966Z,20.40
2019-04-20T10:09:39.822Z,20.50
2019-04-20T10:12:09.064Z,20.60
2019-04-20T10:14:40.713Z,20.90
2019-04-20T10:17:11.855Z,21.00
2019-04-20T10:19:43.667Z,21.20
2019-04-20T10:22:14.995Z,21.40
2019-04-20T10:24:48.582Z,21.60
2019-04-20T10:27:18.773Z,21.80
2019-04-20T10:29:49.405Z,21.80
2019-04-20T10:32:19.887Z,21.80
2019-04-20T10:34:50.665Z,22.10
2019-04-20T10:37:23.893Z,22.10
2019-04-20T10:39:54.594Z,22.20
2019-04-20T10:42:26.037Z,22.50
2019-04-20T10:44:58.816Z,22.80
2019-04-20T10:47:29.391Z,23.20
2019-04-20T10:50:00.874Z,23.60
2019-04-20T10:52:32.003Z,24.20
2019-04-20T10:55:02.934Z,24.80
2019-04-20T10:57:33.601Z,25.10
2019-04-20T11:00:07.819Z,25.50
2019-04-20T11:02:42.648Z,25.80
2019-04-20T11:05:12.818Z,26.10
2019-04-20T11:07:44.302Z,26.20
2019-04-20T11:10:21.931Z,25.80
2019-04-20T11:12:48.412Z,25.60
2019-04-20T11:15:19.034Z,25.80
2019-04-20T11:17:49.495Z,26.40
2019-04-20T11:20:21.216Z,26.70
2019-04-20T11:22:52.687Z,27.20
2019-04-20T11:25:24.262Z,27.70
2019-04-20T11:27:54.797Z,27.60
2019-04-20T11:30:25.887Z,27.50
2019-04-20T11:32:56.508Z,27.70
2019-04-20T11:35:33.879Z,28.20
2019-04-20T11:37:59.320Z,28.50
2019-04-20T11:40:30.807Z,28.60
2019-04-20T11:43:01.680Z,28.70
2019-04-20T11:45:32.988Z,28.50
2019-04-20T11:48:03.663Z,28.90
2019-04-20T11:50:34.150Z,29.10
2019-04-20T11:53:05.573Z,29.80
2019-04-20T11:55:36.305Z,29.90
2019-04-20T11:58:08.073Z,30.00
2019-04-20T12:00:56.030Z,30.40
2019-04-20T12:03:31.072Z,30.90
2019-04-20T12:05:59.159Z,31.40
2019-04-20T12:08:27.499Z,31.70
2019-04-20T12:11:01.689Z,32.00
2019-04-20T12:13:30.981Z,32.20
2019-04-20T12:16:01.679Z,32.10
2019-04-20T12:18:32.140Z,31.70
2019-04-20T12:21:02.989Z,32.20
2019-04-20T12:23:33.995Z,32.60
2019-04-20T12:26:04.850Z,33.10
2019-04-20T12:28:35.824Z,33.50
2019-04-20T12:31:11.882Z,33.50
2019-04-20T12:33:38.560Z,33.20
2019-04-20T12:36:10.421Z,33.60
2019-04-20T12:38:41.337Z,33.80
2019-04-20T12:41:14.045Z,34.10
2019-04-20T12:43:44.072Z,34.20
2019-04-20T12:46:17.897Z,34.30
2019-04-20T12:48:47.470Z,34.70
2019-04-20T12:51:18.018Z,35.00
2019-04-20T12:53:48.833Z,35.10
2019-04-20T12:56:20.302Z,34.40
2019-04-20T12:58:51.653Z,34.30
2019-04-20T13:01:24.039Z,34.00
2019-04-20T13:03:55.331Z,34.20
2019-04-20T13:06:26.309Z,34.10
2019-04-20T13:09:00.276Z,33.80
2019-04-20T13:11:54.683Z,33.10
2019-04-20T13:14:42.290Z,32.60
2019-04-20T13:17:12.819Z,31.80
2019-04-20T13:19:43.312Z,31.00
2019-04-20T13:22:14.818Z,30.50
2019-04-20T13:24:45.414Z,30.00
2019-04-20T13:27:16.774Z,29.20
2019-04-20T13:29:50.555Z,28.90
2019-04-20T13:32:20.205Z,28.80
2019-04-20T13:34:51.971Z,28.80
2019-04-20T13:37:22.546Z,28.70
2019-04-20T13:39:53.243Z,28.80
2019-04-20T13:42:27.926Z,28.70
2019-04-20T13:44:57.118Z,28.00
2019-04-20T13:47:28.323Z,27.70
2019-04-20T13:49:58.953Z,27.30
2019-04-20T13:52:30.869Z,27.10
2019-04-20T13:55:02.291Z,27.10
2019-04-20T13:57:42.041Z,27.10
2019-04-20T14:00:22.123Z,27.20
2019-04-20T14:03:10.999Z,27.60
2019-04-20T14:05:42.598Z,27.40
2019-04-20T14:08:17.648Z,27.20
2019-04-20T14:10:49.259Z,27.20
2019-04-20T14:13:21.891Z,27.30
2019-04-20T14:15:53.395Z,26.90
2019-04-20T14:18:25.045Z,26.80
2019-04-20T14:20:56.267Z,26.50
2019-04-20T14:23:27.072Z,26.30
2019-04-20T14:25:58.796Z,26.30
2019-04-20T14:28:29.352Z,26.10
2019-04-20T14:30:59.839Z,25.80
2019-04-20T14:33:30.733Z,25.70
2019-04-20T14:36:01.371Z,25.90
2019-04-20T14:38:31.860Z,26.40
2019-04-20T14:41:02.362Z,26.70
2019-04-20T14:43:34.412Z,26.90
2019-04-20T14:46:05.161Z,26.80
2019-04-20T14:48:36.592Z,27.00
2019-04-20T14:51:07.742Z,27.40
2019-04-20T14:53:38.266Z,27.70
2019-04-20T14:56:09.521Z,27.80
2019-04-20T14:58:51.434Z,28.30
2019-04-20T15:01:30.329Z,28.80
2019-04-20T15:04:06.838Z,29.20
2019-04-20T15:06:36.739Z,29.30
2019-04-20T15:09:08.775Z,29.60
2019-04-20T15:11:41.708Z,29.90
2019-04-20T15:14:11.551Z,30.30
2019-04-20T15:16:42.682Z,29.90
2019-04-20T15:19:13.713Z,29.40
2019-04-20T15:21:47.311Z,29.10
2019-04-20T15:24:17.948Z,28.60
2019-04-20T15:26:48.735Z,28.60
2019-04-20T15:29:20.173Z,29.40
2019-04-20T15:31:52.187Z,30.00
2019-04-20T15:34:22.799Z,30.80
2019-04-20T15:36:54.062Z,31.30
2019-04-20T15:39:25.272Z,31.70
2019-04-20T15:41:57.084Z,31.90
2019-04-20T15:44:27.668Z,31.90
2019-04-20T15:46:59.293Z,32.10
2019-04-20T15:49:29.865Z,31.80
2019-04-20T15:52:01.648Z,31.80
2019-04-20T15:54:33.707Z,31.30
2019-04-20T15:57:09.847Z,31.60
2019-04-20T15:59:38.133Z,31.60
2019-04-20T16:02:29.452Z,30.50
2019-04-20T16:05:08.269Z,29.80
2019-04-20T16:07:46.866Z,29.80
2019-04-20T16:10:11.021Z,29.50
2019-04-20T16:12:42.710Z,29.30
2019-04-20T16:15:13.636Z,29.50
2019-04-20T16:17:49.080Z,29.50
2019-04-20T16:20:20.075Z,29.90
2019-04-20T16:22:48.974Z,30.30
2019-04-20T16:25:27.617Z,30.30
2019-04-20T16:27:59.376Z,30.40
2019-04-20T16:30:29.941Z,30.40
2019-04-20T16:33:00.769Z,30.40
2019-04-20T16:35:32.159Z,29.80
2019-04-20T16:38:02.833Z,29.20
2019-04-20T16:40:33.595Z,28.00
2019-04-20T16:43:16.796Z,26.90
2019-04-20T16:45:37.220Z,25.60
2019-04-20T16:48:08.454Z,24.80
2019-04-20T16:50:39.105Z,24.40
2019-04-20T16:53:12.670Z,24.00
2019-04-20T16:55:43.297Z,23.40
2019-04-20T16:58:13.824Z,22.80
2019-04-20T17:00:45.487Z,22.20
2019-04-20T17:03:17.229Z,21.70
2019-04-20T17:05:50.033Z,21.40
2019-04-20T17:08:20.880Z,21.50
2019-04-20T17:10:51.764Z,21.30
2019-04-20T17:13:34.149Z,21.10
2019-04-20T17:15:55.435Z,21.00
2019-04-20T17:18:26.089Z,20.80
2019-04-20T17:20:56.821Z,20.60
2019-04-20T17:23:27.698Z,20.60
2019-04-20T17:25:59.852Z,20.50
2019-04-20T17:28:33.098Z,20.40
2019-04-20T17:31:05.321Z,20.10
2019-04-20T17:33:55.149Z,20.10
2019-04-20T17:36:21.759Z,19.90
2019-04-20T17:38:54.122Z,19.90
2019-04-20T17:41:43.005Z,19.90
2019-04-20T17:44:09.948Z,19.90
2019-04-20T17:46:39.140Z,19.80
2019-04-20T17:49:14.810Z,19.70
2019-04-20T17:51:53.466Z,19.70
2019-04-20T17:54:11.099Z,19.60
2019-04-20T17:56:42.532Z,19.60
2019-04-20T17:59:14.429Z,19.50
2019-04-20T18:02:00.850Z,19.40
2019-04-20T18:04:51.981Z,19.30
2019-04-20T18:07:04.408Z,19.30
2019-04-20T18:09:49.263Z,19.20
2019-04-20T18:12:04.439Z,19.10
2019-04-20T18:14:45.897Z,19.00
2019-04-20T18:17:17.815Z,18.90
2019-04-20T18:19:41.300Z,18.80
2019-04-20T18:22:14.002Z,18.70
2019-04-20T18:25:10.148Z,18.60
2019-04-20T18:27:37.408Z,18.50
2019-04-20T18:30:06.803Z,18.40
2019-04-20T18:32:27.419Z,18.20
2019-04-20T18:35:12.168Z,18.20
2019-04-20T18:37:45.363Z,18.10
2019-04-20T18:40:26.644Z,18.00
2019-04-20T18:42:55.946Z,17.90
2019-04-20T18:45:38.212Z,17.70
2019-04-20T18:48:14.621Z,17.60
2019-04-20T18:50:32.915Z,17.40
2019-04-20T18:52:57.969Z,17.40
2019-04-20T18:55:38.821Z,17.30
2019-04-20T18:58:01.515Z,17.20
2019-04-20T19:00:35.717Z,17.20
2019-04-20T19:03:14.584Z,17.20
2019-04-20T19:05:37.987Z,17.10
2019-04-20T19:08:12.400Z,17.10
2019-04-20T19:10:43.528Z,17.00
2019-04-20T19:13:36.354Z,16.90
2019-04-20T19:16:19.712Z,16.80
2019-04-20T19:19:09.717Z,16.80
2019-04-20T19:21:31.161Z,16.70
2019-04-20T19:24:07.408Z,16.60
2019-04-20T19:26:34.295Z,16.60
2019-04-20T19:29:15.816Z,16.50
2019-04-20T19:31:52.544Z,16.40
2019-04-20T19:34:26.622Z,16.40
2019-04-20T19:36:58.158Z,16.30
2019-04-20T19:39:31.210Z,16.30
2019-04-20T19:41:54.039Z,16.20
2019-04-20T19:44:27.239Z,16.20
2019-04-20T19:47:11.392Z,16.10
2019-04-20T19:49:36.375Z,16.00
2019-04-20T19:52:25.474Z,15.90
2019-04-20T19:54:46.540Z,15.80
2019-04-20T19:57:18.696Z,15.70
2019-04-20T19:59:39.856Z,15.60
2019-04-20T20:02:05.436Z,15.60
2019-04-20T20:04:41.163Z,15.60
2019-04-20T20:07:19.749Z,15.50
2019-04-20T20:09:52.128Z,15.40
2019-04-20T20:12:16.123Z,15.30
2019-04-20T20:14:49.196Z,15.20
2019-04-20T20:17:40.268Z,15.10
2019-04-20T20:20:16.316Z,15.10
2019-04-20T20:22:32.329Z,15.00
2019-04-20T20:24:54.911Z,15.00
2019-04-20T20:27:35.222Z,14.90
2019-04-20T20:30:08.239Z,14.80
2019-04-20T20:32:47.008Z,14.70
2019-04-20T20:35:09.079Z,14.80
2019-04-20T20:37:42.443Z,14.70
2019-04-20T20:40:18.900Z,14.60
2019-04-20T20:42:52.799Z,14.60
2019-04-20T20:45:24.045Z,14.50
2019-04-20T20:48:06.210Z,14.40
2019-04-20T20:50:37.450Z,14.40
2019-04-20T20:53:00.931Z,14.30
2019-04-20T20:55:32.096Z,14.30
2019-04-20T20:58:01.750Z,14.30
2019-04-20T21:00:37.277Z,14.30
2019-04-20T21:03:03.887Z,14.20
2019-04-20T21:05:31.530Z,14.20
2019-04-20T21:08:02.158Z,14.20
2019-04-20T21:10:39.780Z,14.10
2019-04-20T21:13:08.343Z,14.20
2019-04-20T21:15:38.328Z,14.20
2019-04-20T21:18:33.262Z,14.10
2019-04-20T21:21:00.150Z,14.10
2019-04-20T21:23:28.369Z,14.10
2019-04-20T21:26:05.006Z,14.00
2019-04-20T21:28:38.065Z,14.00
2019-04-20T21:31:15.973Z,13.90
2019-04-20T21:33:43.091Z,13.80
2019-04-20T21:36:19.099Z,13.70
2019-04-20T21:38:46.896Z,13.70
2019-04-20T21:41:20.595Z,13.70
2019-04-20T21:43:50.246Z,13.60
2019-04-20T21:46:20.881Z,13.60
2019-04-20T21:49:01.805Z,13.60
2019-04-20T21:51:34.656Z,13.60
2019-04-20T21:53:58.223Z,13.50
2019-04-20T21:56:28.126Z,13.60
2019-04-20T21:59:03.777Z,13.60
2019-04-20T22:01:37.716Z,13.50
2019-04-20T22:04:03.090Z,13.50
2019-04-20T22:06:34.257Z,13.50
2019-04-20T22:09:09.069Z,13.50
2019-04-20T22:11:40.079Z,13.40
2019-04-20T22:14:17.323Z,13.40
2019-04-20T22:16:49.146Z,13.30
2019-04-20T22:19:27.462Z,13.30
2019-04-20T22:22:00.580Z,13.30
2019-04-20T22:24:38.127Z,13.30
2019-04-20T22:27:03.143Z,13.20
2019-04-20T22:29:24.106Z,13.10
2019-04-20T22:32:02.758Z,13.10
2019-04-20T22:34:28.425Z,13.10
2019-04-20T22:36:59.938Z,13.10
2019-04-20T22:39:41.383Z,13.10
2019-04-20T22:42:12.396Z,13.10
2019-04-20T22:44:41.240Z,13.00
2019-04-20T22:47:16.947Z,13.00
2019-04-20T22:50:05.621Z,13.00
2019-04-20T22:52:30.551Z,13.00
2019-04-20T22:55:14.010Z,13.00
2019-04-20T22:57:38.759Z,12.90
2019-04-20T23:00:02.701Z,12.80
2019-04-20T23:02:27.963Z,12.70
2019-04-20T23:04:57.796Z,12.60
2019-04-20T23:07:28.528Z,12.50
2019-04-20T23:10:01.562Z,12.50
2019-04-20T23:12:32.160Z,12.50
2019-04-20T23:15:04.640Z,12.50
2019-04-20T23:17:40.021Z,12.40
2019-04-20T23:20:15.167Z,12.30
2019-04-20T23:22:45.560Z,12.30
2019-04-20T23:25:13.371Z,12.30
2019-04-20T23:27:43.984Z,12.30
2019-04-20T23:30:23.354Z,12.20
2019-04-20T23:32:47.092Z,12.20
2019-04-20T23:35:21.102Z,12.10
2019-04-20T23:37:50.698Z,12.10
2019-04-20T23:40:21.680Z,12.00
2019-04-20T23:43:17.736Z,12.00
2019-04-20T23:45:57.177Z,11.90
2019-04-20T23:48:35.978Z,11.80
2019-04-20T23:51:31.377Z,11.80
2019-04-20T23:53:47.676Z,11.70
2019-04-20T23:56:14.300Z,11.60
2019-04-20T23:58:46.618Z,11.50
